createdAt,value
2023-03-24T00:03:54.315Z,5.78
2023-03-24T00:08:01.652Z,3.75
2023-03-24T00:12:04.154Z,2.75
2023-03-24T00:16:06.621Z,3.03
2023-03-24T00:20:16.898Z,3.05
2023-03-24T00:24:18.676Z,4.95
2023-03-24T00:28:20.382Z,4.75
2023-03-24T00:32:22.747Z,4.57
2023-03-24T00:36:26.588Z,5.25
2023-03-24T00:40:28.288Z,5.22
2023-03-24T00:44:29.994Z,4.32
2023-03-24T00:48:32.608Z,4.20
2023-03-24T00:52:34.967Z,6.95
2023-03-24T00:56:40.390Z,3.78
2023-03-24T01:00:42.721Z,5.07
2023-03-24T01:04:47.193Z,3.42
2023-03-24T01:08:53.603Z,3.87
2023-03-24T01:12:57.028Z,3.80
2023-03-24T01:16:59.851Z,3.80
2023-03-24T01:21:01.603Z,5.20
2023-03-24T01:25:14.037Z,4.57
2023-03-24T01:29:15.803Z,4.28
2023-03-24T01:33:17.987Z,2.90
2023-03-24T01:37:19.727Z,4.05
2023-03-24T01:41:21.534Z,5.07
2023-03-24T01:45:38.569Z,3.72
2023-03-24T01:49:53.340Z,4.32
2023-03-24T01:54:10.340Z,4.07
2023-03-24T01:58:12.225Z,3.60
2023-03-24T02:02:15.959Z,3.53
2023-03-24T02:06:18.975Z,5.95
2023-03-24T02:10:22.665Z,4.78
2023-03-24T02:14:24.400Z,4.05
2023-03-24T02:18:29.430Z,5.18
2023-03-24T02:22:52.676Z,3.85
2023-03-24T02:27:23.746Z,4.35
2023-03-24T02:31:43.614Z,3.42
2023-03-24T02:36:13.226Z,3.12
2023-03-24T02:40:33.125Z,4.55
2023-03-24T02:45:12.212Z,3.65
2023-03-24T02:49:13.876Z,4.55
2023-03-24T02:53:26.153Z,6.70
2023-03-24T02:57:54.724Z,3.40
2023-03-24T03:02:05.195Z,4.20
2023-03-24T03:06:22.087Z,5.00
2023-03-24T03:10:29.320Z,2.75
2023-03-24T03:18:43.430Z,3.12
2023-03-24T03:23:00.702Z,5.22
2023-03-24T03:27:08.289Z,3.00
2023-03-24T03:31:16.112Z,4.43
2023-03-24T03:35:36.431Z,3.28
2023-03-24T03:39:43.725Z,3.92
2023-03-24T03:47:49.027Z,4.62
2023-03-24T03:51:51.796Z,2.08
2023-03-24T03:55:53.785Z,3.65
2023-03-24T03:59:56.485Z,2.30
2023-03-24T04:04:04.234Z,2.17
2023-03-24T04:08:14.599Z,2.35
2023-03-24T04:12:48.574Z,6.85
2023-03-24T04:17:11.632Z,2.37
2023-03-24T04:21:34.583Z,2.67
2023-03-24T04:25:44.943Z,3.08
2023-03-24T04:30:16.489Z,3.47
2023-03-24T04:34:37.161Z,2.55
2023-03-24T04:38:39.171Z,3.92
2023-03-24T04:42:48.486Z,2.90
2023-03-24T04:46:51.912Z,2.90
2023-03-24T04:50:57.408Z,2.78
2023-03-24T04:54:59.997Z,2.65
2023-03-24T04:59:02.096Z,4.00
2023-03-24T05:03:04.586Z,3.17
2023-03-24T05:07:06.336Z,4.32
2023-03-24T05:11:08.031Z,2.92
2023-03-24T05:15:10.515Z,3.08
2023-03-24T05:19:12.391Z,2.28
2023-03-24T05:23:14.452Z,2.55
2023-03-24T05:27:16.437Z,2.65
2023-03-24T05:31:18.484Z,4.07
2023-03-24T05:35:20.298Z,2.78
2023-03-24T05:39:22.173Z,2.22
2023-03-24T05:43:23.821Z,2.45
2023-03-24T05:47:25.492Z,6.37
2023-03-24T05:51:27.316Z,2.83
2023-03-24T05:55:30.196Z,4.47
2023-03-24T05:59:31.919Z,3.62
2023-03-24T06:03:34.713Z,2.37
2023-03-24T06:07:42.460Z,2.67
2023-03-24T06:11:44.873Z,6.62
2023-03-24T06:15:46.966Z,7.20
2023-03-24T06:19:49.702Z,6.80
2023-03-24T06:23:51.670Z,8.32
2023-03-24T06:27:53.414Z,5.07
2023-03-24T06:31:55.338Z,5.85
2023-03-24T06:35:57.079Z,10.13
2023-03-24T06:39:59.196Z,6.22
2023-03-24T06:44:01.746Z,7.62
2023-03-24T06:48:03.602Z,9.35
2023-03-24T06:52:05.484Z,7.30
2023-03-24T06:56:07.906Z,10.05
2023-03-24T07:00:10.207Z,6.50
2023-03-24T07:04:11.871Z,9.32
2023-03-24T07:12:18.155Z,8.43
2023-03-24T07:16:19.931Z,10.95
2023-03-24T07:20:21.873Z,9.90
2023-03-24T07:24:23.793Z,7.28
2023-03-24T07:28:25.967Z,7.70
2023-03-24T07:32:30.411Z,10.13
2023-03-24T07:36:32.322Z,8.05
2023-03-24T07:40:35.501Z,8.52
2023-03-24T07:44:37.142Z,9.60
2023-03-24T07:48:38.830Z,7.37
2023-03-24T07:52:42.299Z,5.75
2023-03-24T07:56:44.157Z,7.93
2023-03-24T08:00:45.958Z,10.65
2023-03-24T08:04:53.678Z,8.15
2023-03-24T08:08:55.913Z,12.45
2023-03-24T08:12:59.009Z,12.52
2023-03-24T08:17:00.755Z,8.98
2023-03-24T08:21:02.501Z,8.77
2023-03-24T08:25:04.417Z,10.60
2023-03-24T08:29:06.134Z,10.63
2023-03-24T08:33:07.855Z,14.13
2023-03-24T08:37:09.862Z,9.05
2023-03-24T08:41:11.718Z,8.07
2023-03-24T08:45:13.730Z,14.00
2023-03-24T08:49:15.630Z,10.95
2023-03-24T08:53:17.310Z,12.85
2023-03-24T08:57:19.181Z,10.35
2023-03-24T09:01:22.734Z,8.63
2023-03-24T09:05:40.822Z,10.93
2023-03-24T09:09:45.397Z,14.02
2023-03-24T09:13:47.943Z,14.27
2023-03-24T09:17:49.733Z,12.75
2023-03-24T09:21:51.549Z,10.73
2023-03-24T09:25:53.783Z,11.05
2023-03-24T09:29:55.585Z,10.00
2023-03-24T09:33:57.395Z,9.43
2023-03-24T09:37:59.152Z,11.95
2023-03-24T09:42:00.865Z,9.77
2023-03-24T09:46:05.989Z,8.57
2023-03-24T09:50:17.886Z,10.48
2023-03-24T09:54:31.310Z,12.13
2023-03-24T09:58:33.530Z,12.13
2023-03-24T10:02:35.721Z,9.50
2023-03-24T10:06:41.831Z,9.93
2023-03-24T10:10:55.812Z,20.58
2023-03-24T10:15:06.757Z,9.23
2023-03-24T10:19:40.967Z,10.85
2023-03-24T10:23:48.800Z,10.27
2023-03-24T10:27:57.238Z,7.10
2023-03-24T10:32:00.687Z,9.00
2023-03-24T10:36:09.796Z,9.45
2023-03-24T10:40:18.100Z,7.90
2023-03-24T10:44:21.335Z,8.05
2023-03-24T10:48:45.163Z,10.32
2023-03-24T10:52:48.797Z,6.57
2023-03-24T10:56:57.947Z,12.63
2023-03-24T11:01:00.569Z,11.77
2023-03-24T11:05:18.936Z,9.65
2023-03-24T11:09:22.384Z,9.40
2023-03-24T11:13:25.928Z,8.00
2023-03-24T11:17:27.807Z,6.80
2023-03-24T11:21:31.573Z,9.63
2023-03-24T11:25:37.040Z,5.68
2023-03-24T11:29:39.870Z,9.68
2023-03-24T11:33:51.579Z,3.95
2023-03-24T11:37:53.315Z,6.93
2023-03-24T11:42:17.365Z,7.80
2023-03-24T11:46:21.204Z,8.88
2023-03-24T11:50:38.821Z,8.70
2023-03-24T11:58:58.938Z,8.45
2023-03-24T12:03:27.660Z,4.95
2023-03-24T12:07:39.449Z,8.82
2023-03-24T12:12:00.498Z,8.55
2023-03-24T12:16:31.645Z,7.35
2023-03-24T12:20:58.500Z,7.07
2023-03-24T12:25:31.227Z,6.95
2023-03-24T12:29:52.920Z,8.23
2023-03-24T12:34:16.804Z,7.50
2023-03-24T12:38:56.755Z,5.37
2023-03-24T12:43:26.158Z,7.03
2023-03-24T12:47:56.088Z,4.78
2023-03-24T12:52:18.927Z,5.05
2023-03-24T12:56:26.582Z,5.82
2023-03-24T13:00:36.171Z,6.45
2023-03-24T13:04:42.179Z,7.28
2023-03-24T13:08:52.449Z,9.02
2023-03-24T13:12:57.134Z,6.50
2023-03-24T13:17:05.994Z,6.07
2023-03-24T13:21:17.561Z,9.45
2023-03-24T13:25:46.221Z,6.87
2023-03-24T13:30:13.367Z,6.05
2023-03-24T13:34:31.102Z,7.57
2023-03-24T13:38:38.740Z,5.30
2023-03-24T13:42:48.601Z,5.72
2023-03-24T13:47:19.916Z,7.65
2023-03-24T13:51:38.008Z,8.18
2023-03-24T13:55:44.377Z,4.57
2023-03-24T14:00:12.034Z,3.40
2023-03-24T14:04:25.993Z,4.43
2023-03-24T14:08:51.844Z,6.15
2023-03-24T14:12:53.603Z,3.62
2023-03-24T14:17:14.494Z,4.53
2023-03-24T14:21:27.908Z,2.45
2023-03-24T14:25:32.348Z,3.78
2023-03-24T14:29:52.353Z,6.43
2023-03-24T14:33:53.969Z,4.28
2023-03-24T14:38:04.304Z,9.02
2023-03-24T14:42:33.979Z,6.00
2023-03-24T14:46:39.425Z,4.70
2023-03-24T14:50:41.385Z,5.87
2023-03-24T14:54:53.350Z,4.78
2023-03-24T14:58:57.717Z,4.30
2023-03-24T15:03:10.627Z,4.65
2023-03-24T15:07:14.130Z,6.60
2023-03-24T15:11:20.095Z,4.45
2023-03-24T15:15:23.736Z,4.43
2023-03-24T15:19:28.905Z,2.95
2023-03-24T15:23:31.143Z,4.65
2023-03-24T15:27:34.419Z,3.67
2023-03-24T15:31:37.962Z,3.30
2023-03-24T15:35:42.752Z,2.92
2023-03-24T15:40:12.538Z,2.70
2023-03-24T15:44:20.668Z,7.70
2023-03-24T15:48:25.482Z,7.95
2023-03-24T15:52:31.737Z,6.65
2023-03-24T15:56:34.338Z,4.55
2023-03-24T16:00:41.046Z,2.53
2023-03-24T16:04:42.975Z,1.10
2023-03-24T16:08:46.250Z,1.12
2023-03-24T16:12:47.888Z,0.88
2023-03-24T16:16:54.183Z,2.15
2023-03-24T16:20:56.043Z,3.03
2023-03-24T16:24:58.352Z,1.62
2023-03-24T16:29:17.251Z,2.50
2023-03-24T16:33:20.504Z,1.55
2023-03-24T16:37:22.109Z,2.22
2023-03-24T16:41:24.157Z,2.75
2023-03-24T16:45:25.899Z,1.50
2023-03-24T16:49:27.875Z,2.40
2023-03-24T16:53:29.599Z,1.98
2023-03-24T16:57:31.594Z,1.30
2023-03-24T17:01:38.126Z,2.12
2023-03-24T17:05:51.251Z,0.68
2023-03-24T17:09:52.946Z,1.48
2023-03-24T17:13:57.027Z,2.37
2023-03-24T17:17:59.584Z,1.87
2023-03-24T17:22:04.555Z,2.08
2023-03-24T17:26:06.491Z,1.65
2023-03-24T17:30:11.076Z,5.10
2023-03-24T17:38:18.912Z,4.93
2023-03-24T17:42:20.635Z,2.83
2023-03-24T17:46:22.410Z,2.45
2023-03-24T17:50:25.335Z,5.20
2023-03-24T17:54:27.963Z,2.62
2023-03-24T17:58:30.827Z,3.05
2023-03-24T18:02:32.998Z,2.80
2023-03-24T18:06:34.836Z,4.15
2023-03-24T18:10:37.005Z,3.28
2023-03-24T18:14:38.654Z,5.10
2023-03-24T18:18:41.207Z,6.32
2023-03-24T18:22:43.150Z,4.93
2023-03-24T18:26:44.832Z,3.80
2023-03-24T18:30:46.921Z,3.20
2023-03-24T18:34:48.669Z,4.25
2023-03-24T18:38:50.674Z,3.00
2023-03-24T18:42:52.359Z,3.72
2023-03-24T18:46:55.313Z,4.20
2023-03-24T18:50:57.012Z,3.70
2023-03-24T18:55:00.748Z,3.08
2023-03-24T18:59:02.438Z,2.33
2023-03-24T19:03:04.531Z,2.75
2023-03-24T19:07:08.032Z,2.28
2023-03-24T19:11:10.890Z,5.97
2023-03-24T19:15:13.368Z,5.75
2023-03-24T19:19:18.246Z,5.87
2023-03-24T19:23:20.475Z,5.65
2023-03-24T19:27:23.253Z,4.32
2023-03-24T19:31:24.914Z,3.58
2023-03-24T19:35:26.971Z,5.30
2023-03-24T19:39:28.703Z,3.42
2023-03-24T19:43:30.583Z,3.30
2023-03-24T19:47:33.930Z,2.85
2023-03-24T19:51:35.700Z,5.10
2023-03-24T19:55:37.345Z,2.78
2023-03-24T19:59:39.004Z,4.68
2023-03-24T20:03:40.717Z,4.12
2023-03-24T20:07:42.452Z,3.37
2023-03-24T20:11:44.133Z,4.35
2023-03-24T20:15:46.468Z,2.55
2023-03-24T20:19:48.297Z,4.12
2023-03-24T20:23:51.675Z,2.78
2023-03-24T20:27:53.345Z,5.30
2023-03-24T20:31:55.082Z,3.45
2023-03-24T20:35:57.722Z,3.42
2023-03-24T20:39:59.567Z,4.95
2023-03-24T20:44:01.355Z,2.53
2023-03-24T20:48:03.379Z,3.92
2023-03-24T20:52:05.232Z,4.65
2023-03-24T20:56:09.812Z,5.12
2023-03-24T21:00:15.164Z,5.05
2023-03-24T21:04:18.726Z,5.15
2023-03-24T21:08:20.416Z,4.97
2023-03-24T21:12:22.273Z,4.10
2023-03-24T21:16:26.496Z,4.25
2023-03-24T21:20:28.279Z,3.15
2023-03-24T21:24:30.076Z,5.30
2023-03-24T21:28:32.235Z,3.78
2023-03-24T21:32:36.799Z,2.28
2023-03-24T21:36:38.676Z,3.72
2023-03-24T21:40:40.454Z,2.42
2023-03-24T21:44:42.660Z,3.53
2023-03-24T21:48:50.023Z,1.23
2023-03-24T21:52:53.813Z,3.08
2023-03-24T21:56:55.530Z,2.22
2023-03-24T22:00:58.451Z,2.30
2023-03-24T22:05:01.432Z,3.10
2023-03-24T22:09:06.710Z,2.55
2023-03-24T22:13:09.143Z,2.05
2023-03-24T22:17:10.913Z,2.30
2023-03-24T22:21:13.020Z,2.22
2023-03-24T22:25:17.859Z,1.65
2023-03-24T22:29:19.559Z,1.87
2023-03-24T22:33:21.445Z,3.03
2023-03-24T22:37:23.254Z,5.25
2023-03-24T22:41:25.174Z,2.90
2023-03-24T22:45:26.936Z,5.00
2023-03-24T22:49:29.553Z,6.28
2023-03-24T22:53:31.217Z,2.90
2023-03-24T22:57:32.880Z,3.60
2023-03-24T23:01:34.558Z,1.52
2023-03-24T23:05:40.795Z,4.07
2023-03-24T23:09:42.931Z,2.05
2023-03-24T23:13:46.655Z,2.65
2023-03-24T23:17:48.443Z,1.27
2023-03-24T23:21:50.247Z,3.00
2023-03-24T23:25:51.947Z,3.22
2023-03-24T23:29:53.720Z,3.00
2023-03-24T23:33:57.362Z,3.22
2023-03-24T23:37:59.350Z,2.95
2023-03-24T23:42:00.993Z,6.55
2023-03-24T23:46:03.143Z,4.12
2023-03-24T23:50:06.261Z,7.07
2023-03-24T23:54:08.067Z,2.83
2023-03-24T23:58:09.711Z,3.10
